sensor_id;sensor_type;location;lat;lon;timestamp;P1;durP1;ratioP1;P2;durP2;ratioP2
20073;SDS011;10197;54.282;10.078;2023-04-06T00:01:06;7.28;;;4.93;;
20073;SDS011;10197;54.282;10.078;2023-04-06T00:03:33;5.22;;;4.40;;
20073;SDS011;10197;54.282;10.078;2023-04-06T00:06:00;7.15;;;5.22;;
20073;SDS011;10197;54.282;10.078;2023-04-06T00:08:27;6.82;;;5.28;;
20073;SDS011;10197;54.282;10.078;2023-04-06T00:10:56;5.82;;;4.70;;
20073;SDS011;10197;54.282;10.078;2023-04-06T00:13:23;7.22;;;5.32;;
20073;SDS011;10197;54.282;10.078;2023-04-06T00:15:50;7.13;;;5.03;;
20073;SDS011;10197;54.282;10.078;2023-04-06T00:18:16;5.38;;;4.55;;
20073;SDS011;10197;54.282;10.078;2023-04-06T00:20:44;6.38;;;5.20;;
20073;SDS011;10197;54.282;10.078;2023-04-06T00:23:11;8.68;;;4.82;;
20073;SDS011;10197;54.282;10.078;2023-04-06T00:25:38;6.82;;;5.03;;
20073;SDS011;10197;54.282;10.078;2023-04-06T00:28:07;6.53;;;4.95;;
20073;SDS011;10197;54.282;10.078;2023-04-06T00:30:34;5.97;;;4.60;;
20073;SDS011;10197;54.282;10.078;2023-04-06T00:33:01;7.32;;;4.82;;
20073;SDS011;10197;54.282;10.078;2023-04-06T00:35:28;6.28;;;4.40;;
20073;SDS011;10197;54.282;10.078;2023-04-06T00:37:55;8.60;;;5.20;;
20073;SDS011;10197;54.282;10.078;2023-04-06T00:40:22;7.47;;;4.97;;
20073;SDS011;10197;54.282;10.078;2023-04-06T00:42:50;7.10;;;5.40;;
20073;SDS011;10197;54.282;10.078;2023-04-06T00:45:18;7.05;;;5.07;;
20073;SDS011;10197;54.282;10.078;2023-04-06T00:47:45;9.45;;;5.22;;
20073;SDS011;10197;54.282;10.078;2023-04-06T00:50:13;5.63;;;4.60;;
20073;SDS011;10197;54.282;10.078;2023-04-06T00:52:40;6.80;;;4.70;;
20073;SDS011;10197;54.282;10.078;2023-04-06T00:55:08;7.43;;;5.20;;
20073;SDS011;10197;54.282;10.078;2023-04-06T00:57:40;8.13;;;4.88;;
20073;SDS011;10197;54.282;10.078;2023-04-06T01:00:09;6.05;;;4.93;;
20073;SDS011;10197;54.282;10.078;2023-04-06T01:02:39;6.15;;;5.03;;
20073;SDS011;10197;54.282;10.078;2023-04-06T01:05:08;6.55;;;5.75;;
20073;SDS011;10197;54.282;10.078;2023-04-06T01:07:54;6.65;;;5.03;;
20073;SDS011;10197;54.282;10.078;2023-04-06T01:10:24;6.97;;;5.60;;
20073;SDS011;10197;54.282;10.078;2023-04-06T01:12:57;8.27;;;5.45;;
20073;SDS011;10197;54.282;10.078;2023-04-06T01:15:41;7.57;;;5.20;;
20073;SDS011;10197;54.282;10.078;2023-04-06T01:18:14;7.28;;;4.97;;
20073;SDS011;10197;54.282;10.078;2023-04-06T01:20:50;7.82;;;5.53;;
20073;SDS011;10197;54.282;10.078;2023-04-06T01:23:20;8.13;;;5.60;;
20073;SDS011;10197;54.282;10.078;2023-04-06T01:25:47;9.40;;;5.78;;
20073;SDS011;10197;54.282;10.078;2023-04-06T01:28:14;10.48;;;6.05;;
20073;SDS011;10197;54.282;10.078;2023-04-06T01:31:06;8.75;;;6.13;;
20073;SDS011;10197;54.282;10.078;2023-04-06T01:33:44;8.48;;;5.63;;
20073;SDS011;10197;54.282;10.078;2023-04-06T01:36:15;8.35;;;5.60;;
20073;SDS011;10197;54.282;10.078;2023-04-06T01:38:46;7.53;;;5.57;;
20073;SDS011;10197;54.282;10.078;2023-04-06T01:41:16;8.45;;;5.88;;
20073;SDS011;10197;54.282;10.078;2023-04-06T01:43:50;8.32;;;6.20;;
20073;SDS011;10197;54.282;10.078;2023-04-06T01:46:21;8.88;;;6.30;;
20073;SDS011;10197;54.282;10.078;2023-04-06T01:48:48;9.63;;;7.10;;
20073;SDS011;10197;54.282;10.078;2023-04-06T01:51:30;13.65;;;7.95;;
20073;SDS011;10197;54.282;10.078;2023-04-06T01:54:01;11.45;;;7.55;;
20073;SDS011;10197;54.282;10.078;2023-04-06T01:56:46;10.38;;;7.68;;
20073;SDS011;10197;54.282;10.078;2023-04-06T01:59:41;13.57;;;7.72;;
20073;SDS011;10197;54.282;10.078;2023-04-06T02:02:16;10.45;;;7.22;;
20073;SDS011;10197;54.282;10.078;2023-04-06T02:04:52;12.00;;;7.85;;
20073;SDS011;10197;54.282;10.078;2023-04-06T02:07:19;8.85;;;7.03;;
20073;SDS011;10197;54.282;10.078;2023-04-06T02:09:48;10.73;;;7.72;;
20073;SDS011;10197;54.282;10.078;2023-04-06T02:12:26;12.52;;;8.45;;
20073;SDS011;10197;54.282;10.078;2023-04-06T02:14:53;11.52;;;8.23;;
20073;SDS011;10197;54.282;10.078;2023-04-06T02:17:20;11.30;;;7.68;;
20073;SDS011;10197;54.282;10.078;2023-04-06T02:19:48;10.77;;;7.10;;
20073;SDS011;10197;54.282;10.078;2023-04-06T02:22:15;8.65;;;6.82;;
20073;SDS011;10197;54.282;10.078;2023-04-06T02:24:43;11.02;;;7.47;;
20073;SDS011;10197;54.282;10.078;2023-04-06T02:27:13;9.48;;;7.15;;
20073;SDS011;10197;54.282;10.078;2023-04-06T02:29:45;11.15;;;7.93;;
20073;SDS011;10197;54.282;10.078;2023-04-06T02:32:14;11.55;;;8.15;;
20073;SDS011;10197;54.282;10.078;2023-04-06T02:34:41;12.00;;;7.93;;
20073;SDS011;10197;54.282;10.078;2023-04-06T02:37:10;12.30;;;8.30;;
20073;SDS011;10197;54.282;10.078;2023-04-06T02:39:36;12.82;;;7.95;;
20073;SDS011;10197;54.282;10.078;2023-04-06T02:42:07;11.05;;;7.10;;
20073;SDS011;10197;54.282;10.078;2023-04-06T02:44:36;11.68;;;7.57;;
20073;SDS011;10197;54.282;10.078;2023-04-06T02:47:03;11.85;;;7.85;;
20073;SDS011;10197;54.282;10.078;2023-04-06T02:49:30;12.70;;;7.97;;
20073;SDS011;10197;54.282;10.078;2023-04-06T02:51:58;12.95;;;8.30;;
20073;SDS011;10197;54.282;10.078;2023-04-06T02:54:30;13.00;;;8.75;;
20073;SDS011;10197;54.282;10.078;2023-04-06T02:56:58;11.45;;;8.60;;
20073;SDS011;10197;54.282;10.078;2023-04-06T02:59:36;11.15;;;8.18;;
20073;SDS011;10197;54.282;10.078;2023-04-06T03:02:10;12.57;;;8.50;;
20073;SDS011;10197;54.282;10.078;2023-04-06T03:04:37;11.82;;;8.32;;
20073;SDS011;10197;54.282;10.078;2023-04-06T03:07:10;11.15;;;8.50;;
20073;SDS011;10197;54.282;10.078;2023-04-06T03:09:38;15.63;;;9.18;;
20073;SDS011;10197;54.282;10.078;2023-04-06T03:12:05;13.15;;;9.02;;
20073;SDS011;10197;54.282;10.078;2023-04-06T03:14:48;12.95;;;8.65;;
20073;SDS011;10197;54.282;10.078;2023-04-06T03:17:15;11.05;;;8.20;;
20073;SDS011;10197;54.282;10.078;2023-04-06T03:19:43;13.52;;;8.73;;
20073;SDS011;10197;54.282;10.078;2023-04-06T03:22:11;13.65;;;8.88;;
20073;SDS011;10197;54.282;10.078;2023-04-06T03:24:38;14.05;;;8.93;;
20073;SDS011;10197;54.282;10.078;2023-04-06T03:27:05;13.48;;;8.77;;
20073;SDS011;10197;54.282;10.078;2023-04-06T03:29:33;13.45;;;9.68;;
20073;SDS011;10197;54.282;10.078;2023-04-06T03:32:03;14.07;;;8.77;;
20073;SDS011;10197;54.282;10.078;2023-04-06T03:34:37;12.13;;;8.93;;
20073;SDS011;10197;54.282;10.078;2023-04-06T03:37:04;13.95;;;9.15;;
20073;SDS011;10197;54.282;10.078;2023-04-06T03:39:32;13.98;;;9.48;;
20073;SDS011;10197;54.282;10.078;2023-04-06T03:41:59;17.08;;;10.70;;
20073;SDS011;10197;54.282;10.078;2023-04-06T03:44:34;15.15;;;10.68;;
20073;SDS011;10197;54.282;10.078;2023-04-06T03:47:04;17.27;;;11.43;;
20073;SDS011;10197;54.282;10.078;2023-04-06T03:49:31;18.27;;;12.05;;
20073;SDS011;10197;54.282;10.078;2023-04-06T03:52:00;19.70;;;12.98;;
20073;SDS011;10197;54.282;10.078;2023-04-06T03:54:29;18.58;;;12.73;;
20073;SDS011;10197;54.282;10.078;2023-04-06T03:56:56;19.95;;;13.18;;
20073;SDS011;10197;54.282;10.078;2023-04-06T03:59:25;17.23;;;11.73;;
20073;SDS011;10197;54.282;10.078;2023-04-06T04:01:52;17.40;;;12.10;;
20073;SDS011;10197;54.282;10.078;2023-04-06T04:04:21;16.25;;;10.75;;
20073;SDS011;10197;54.282;10.078;2023-04-06T04:06:48;16.92;;;10.75;;
20073;SDS011;10197;54.282;10.078;2023-04-06T04:09:15;17.10;;;10.95;;
20073;SDS011;10197;54.282;10.078;2023-04-06T04:11:42;17.40;;;11.88;;
20073;SDS011;10197;54.282;10.078;2023-04-06T04:14:09;17.23;;;12.50;;
20073;SDS011;10197;54.282;10.078;2023-04-06T04:16:36;16.73;;;12.45;;
20073;SDS011;10197;54.282;10.078;2023-04-06T04:19:04;18.17;;;12.73;;
20073;SDS011;10197;54.282;10.078;2023-04-06T04:21:33;27.73;;;17.10;;
20073;SDS011;10197;54.282;10.078;2023-04-06T04:24:07;28.73;;;17.45;;
20073;SDS011;10197;54.282;10.078;2023-04-06T04:26:35;27.02;;;17.73;;
20073;SDS011;10197;54.282;10.078;2023-04-06T04:29:04;27.92;;;17.45;;
20073;SDS011;10197;54.282;10.078;2023-04-06T04:31:35;24.83;;;16.33;;
20073;SDS011;10197;54.282;10.078;2023-04-06T04:34:06;28.30;;;18.98;;
20073;SDS011;10197;54.282;10.078;2023-04-06T04:36:35;32.67;;;21.30;;
20073;SDS011;10197;54.282;10.078;2023-04-06T04:39:05;30.13;;;20.33;;
20073;SDS011;10197;54.282;10.078;2023-04-06T04:41:36;31.25;;;20.35;;
20073;SDS011;10197;54.282;10.078;2023-04-06T04:44:09;30.65;;;20.58;;
20073;SDS011;10197;54.282;10.078;2023-04-06T04:46:36;33.10;;;20.98;;
20073;SDS011;10197;54.282;10.078;2023-04-06T04:49:04;33.75;;;22.23;;
20073;SDS011;10197;54.282;10.078;2023-04-06T04:51:31;31.40;;;20.27;;
20073;SDS011;10197;54.282;10.078;2023-04-06T04:54:12;33.20;;;21.00;;
20073;SDS011;10197;54.282;10.078;2023-04-06T04:56:41;30.55;;;20.48;;
20073;SDS011;10197;54.282;10.078;2023-04-06T04:59:22;29.50;;;18.83;;
20073;SDS011;10197;54.282;10.078;2023-04-06T05:01:56;30.95;;;20.60;;
20073;SDS011;10197;54.282;10.078;2023-04-06T05:04:32;32.88;;;20.58;;
20073;SDS011;10197;54.282;10.078;2023-04-06T05:07:02;31.45;;;20.17;;
20073;SDS011;10197;54.282;10.078;2023-04-06T05:09:32;32.38;;;20.10;;
20073;SDS011;10197;54.282;10.078;2023-04-06T05:12:00;32.70;;;20.05;;
20073;SDS011;10197;54.282;10.078;2023-04-06T05:14:29;30.33;;;20.10;;
20073;SDS011;10197;54.282;10.078;2023-04-06T05:16:57;30.98;;;20.05;;
20073;SDS011;10197;54.282;10.078;2023-04-06T05:19:25;30.25;;;19.15;;
20073;SDS011;10197;54.282;10.078;2023-04-06T05:21:52;31.55;;;19.60;;
20073;SDS011;10197;54.282;10.078;2023-04-06T05:24:20;29.75;;;19.60;;
20073;SDS011;10197;54.282;10.078;2023-04-06T05:26:53;40.63;;;24.23;;
20073;SDS011;10197;54.282;10.078;2023-04-06T05:29:22;36.72;;;21.48;;
20073;SDS011;10197;54.282;10.078;2023-04-06T05:31:50;33.17;;;21.17;;
20073;SDS011;10197;54.282;10.078;2023-04-06T05:34:18;30.48;;;20.15;;
20073;SDS011;10197;54.282;10.078;2023-04-06T05:36:46;29.88;;;19.88;;
20073;SDS011;10197;54.282;10.078;2023-04-06T05:39:20;30.33;;;19.08;;
20073;SDS011;10197;54.282;10.078;2023-04-06T05:41:49;24.33;;;17.50;;
20073;SDS011;10197;54.282;10.078;2023-04-06T05:44:29;26.80;;;18.17;;
20073;SDS011;10197;54.282;10.078;2023-04-06T05:47:10;27.42;;;18.98;;
20073;SDS011;10197;54.282;10.078;2023-04-06T05:49:41;30.70;;;19.42;;
20073;SDS011;10197;54.282;10.078;2023-04-06T05:52:14;28.85;;;18.73;;
20073;SDS011;10197;54.282;10.078;2023-04-06T05:54:44;30.23;;;19.75;;
20073;SDS011;10197;54.282;10.078;2023-04-06T05:57:12;28.05;;;18.83;;
20073;SDS011;10197;54.282;10.078;2023-04-06T05:59:41;28.83;;;17.95;;
20073;SDS011;10197;54.282;10.078;2023-04-06T06:02:10;27.02;;;18.65;;
20073;SDS011;10197;54.282;10.078;2023-04-06T06:04:41;27.10;;;17.92;;
20073;SDS011;10197;54.282;10.078;2023-04-06T06:07:08;27.25;;;18.25;;
20073;SDS011;10197;54.282;10.078;2023-04-06T06:09:41;27.00;;;18.02;;
20073;SDS011;10197;54.282;10.078;2023-04-06T06:12:17;24.00;;;16.80;;
20073;SDS011;10197;54.282;10.078;2023-04-06T06:14:47;27.23;;;17.27;;
20073;SDS011;10197;54.282;10.078;2023-04-06T06:17:15;25.30;;;16.30;;
20073;SDS011;10197;54.282;10.078;2023-04-06T06:19:45;23.75;;;15.77;;
20073;SDS011;10197;54.282;10.078;2023-04-06T06:22:12;23.05;;;15.70;;
20073;SDS011;10197;54.282;10.078;2023-04-06T06:24:44;24.13;;;16.25;;
20073;SDS011;10197;54.282;10.078;2023-04-06T06:27:12;24.42;;;16.35;;
20073;SDS011;10197;54.282;10.078;2023-04-06T06:29:40;24.23;;;16.40;;
20073;SDS011;10197;54.282;10.078;2023-04-06T06:32:08;23.15;;;14.05;;
20073;SDS011;10197;54.282;10.078;2023-04-06T06:34:37;21.15;;;14.80;;
20073;SDS011;10197;54.282;10.078;2023-04-06T06:37:06;19.00;;;13.43;;
20073;SDS011;10197;54.282;10.078;2023-04-06T06:39:35;17.58;;;12.98;;
20073;SDS011;10197;54.282;10.078;2023-04-06T06:42:08;18.98;;;12.80;;
20073;SDS011;10197;54.282;10.078;2023-04-06T06:44:59;21.67;;;13.10;;
20073;SDS011;10197;54.282;10.078;2023-04-06T06:47:28;17.77;;;11.90;;
20073;SDS011;10197;54.282;10.078;2023-04-06T06:49:55;18.70;;;12.25;;
20073;SDS011;10197;54.282;10.078;2023-04-06T06:52:23;15.40;;;11.32;;
20073;SDS011;10197;54.282;10.078;2023-04-06T06:54:50;19.23;;;11.88;;
20073;SDS011;10197;54.282;10.078;2023-04-06T06:57:19;14.38;;;10.82;;
20073;SDS011;10197;54.282;10.078;2023-04-06T06:59:47;16.63;;;11.10;;
20073;SDS011;10197;54.282;10.078;2023-04-06T07:02:14;16.15;;;10.52;;
20073;SDS011;10197;54.282;10.078;2023-04-06T07:04:43;17.08;;;10.80;;
20073;SDS011;10197;54.282;10.078;2023-04-06T07:07:10;14.07;;;10.38;;
20073;SDS011;10197;54.282;10.078;2023-04-06T07:09:37;13.18;;;9.98;;
20073;SDS011;10197;54.282;10.078;2023-04-06T07:12:05;13.88;;;9.73;;
20073;SDS011;10197;54.282;10.078;2023-04-06T07:14:32;13.32;;;9.45;;
20073;SDS011;10197;54.282;10.078;2023-04-06T07:17:00;14.93;;;9.68;;
20073;SDS011;10197;54.282;10.078;2023-04-06T07:19:28;14.93;;;8.90;;
20073;SDS011;10197;54.282;10.078;2023-04-06T07:21:56;11.77;;;8.68;;
20073;SDS011;10197;54.282;10.078;2023-04-06T07:24:25;11.93;;;8.07;;
20073;SDS011;10197;54.282;10.078;2023-04-06T07:26:57;10.27;;;7.85;;
20073;SDS011;10197;54.282;10.078;2023-04-06T07:29:31;10.90;;;8.07;;
20073;SDS011;10197;54.282;10.078;2023-04-06T07:31:59;10.82;;;7.55;;
20073;SDS011;10197;54.282;10.078;2023-04-06T07:34:26;9.32;;;7.30;;
20073;SDS011;10197;54.282;10.078;2023-04-06T07:36:53;10.85;;;7.95;;
20073;SDS011;10197;54.282;10.078;2023-04-06T07:39:23;10.45;;;7.25;;
20073;SDS011;10197;54.282;10.078;2023-04-06T07:41:53;11.25;;;7.43;;
20073;SDS011;10197;54.282;10.078;2023-04-06T07:44:20;12.85;;;7.47;;
20073;SDS011;10197;54.282;10.078;2023-04-06T07:46:47;11.65;;;7.95;;
20073;SDS011;10197;54.282;10.078;2023-04-06T07:49:14;11.60;;;7.70;;
20073;SDS011;10197;54.282;10.078;2023-04-06T07:51:43;12.02;;;7.55;;
20073;SDS011;10197;54.282;10.078;2023-04-06T07:54:11;10.93;;;7.20;;
20073;SDS011;10197;54.282;10.078;2023-04-06T07:56:40;9.90;;;6.90;;
20073;SDS011;10197;54.282;10.078;2023-04-06T07:59:07;10.98;;;7.47;;
20073;SDS011;10197;54.282;10.078;2023-04-06T08:01:36;10.82;;;7.22;;
20073;SDS011;10197;54.282;10.078;2023-04-06T08:04:03;11.25;;;7.03;;
20073;SDS011;10197;54.282;10.078;2023-04-06T08:06:32;11.90;;;7.32;;
20073;SDS011;10197;54.282;10.078;2023-04-06T08:08:59;9.00;;;6.80;;
20073;SDS011;10197;54.282;10.078;2023-04-06T08:11:26;10.77;;;6.63;;
20073;SDS011;10197;54.282;10.078;2023-04-06T08:13:55;9.48;;;6.40;;
20073;SDS011;10197;54.282;10.078;2023-04-06T08:16:24;8.40;;;5.90;;
20073;SDS011;10197;54.282;10.078;2023-04-06T08:18:51;9.50;;;6.72;;
20073;SDS011;10197;54.282;10.078;2023-04-06T08:21:18;8.57;;;6.85;;
20073;SDS011;10197;54.282;10.078;2023-04-06T08:23:45;9.32;;;6.60;;
20073;SDS011;10197;54.282;10.078;2023-04-06T08:26:12;8.82;;;6.25;;
20073;SDS011;10197;54.282;10.078;2023-04-06T08:28:39;7.70;;;6.10;;
20073;SDS011;10197;54.282;10.078;2023-04-06T08:31:08;7.00;;;6.10;;
20073;SDS011;10197;54.282;10.078;2023-04-06T08:33:35;10.38;;;6.85;;
20073;SDS011;10197;54.282;10.078;2023-04-06T08:36:09;9.15;;;6.68;;
20073;SDS011;10197;54.282;10.078;2023-04-06T08:38:37;9.60;;;6.90;;
20073;SDS011;10197;54.282;10.078;2023-04-06T08:41:08;8.27;;;6.63;;
20073;SDS011;10197;54.282;10.078;2023-04-06T08:43:38;10.98;;;7.68;;
20073;SDS011;10197;54.282;10.078;2023-04-06T08:46:09;9.95;;;7.55;;
20073;SDS011;10197;54.282;10.078;2023-04-06T08:48:38;11.20;;;7.65;;
20073;SDS011;10197;54.282;10.078;2023-04-06T08:51:06;10.45;;;7.68;;
20073;SDS011;10197;54.282;10.078;2023-04-06T08:53:33;10.73;;;8.30;;
20073;SDS011;10197;54.282;10.078;2023-04-06T08:56:01;8.25;;;7.32;;
20073;SDS011;10197;54.282;10.078;2023-04-06T08:58:34;10.35;;;7.63;;
20073;SDS011;10197;54.282;10.078;2023-04-06T09:01:02;12.55;;;7.63;;
20073;SDS011;10197;54.282;10.078;2023-04-06T09:03:35;12.25;;;7.30;;
20073;SDS011;10197;54.282;10.078;2023-04-06T09:06:04;10.48;;;8.40;;
20073;SDS011;10197;54.282;10.078;2023-04-06T09:08:32;10.10;;;8.70;;
20073;SDS011;10197;54.282;10.078;2023-04-06T09:11:00;10.30;;;7.68;;
20073;SDS011;10197;54.282;10.078;2023-04-06T09:13:27;9.43;;;7.97;;
20073;SDS011;10197;54.282;10.078;2023-04-06T09:15:58;8.55;;;7.13;;
20073;SDS011;10197;54.282;10.078;2023-04-06T09:18:29;10.93;;;7.63;;
20073;SDS011;10197;54.282;10.078;2023-04-06T09:20:58;10.82;;;7.97;;
20073;SDS011;10197;54.282;10.078;2023-04-06T09:23:26;9.60;;;8.13;;
20073;SDS011;10197;54.282;10.078;2023-04-06T09:26:04;9.45;;;7.57;;
20073;SDS011;10197;54.282;10.078;2023-04-06T09:28:40;11.23;;;8.65;;
20073;SDS011;10197;54.282;10.078;2023-04-06T09:31:14;10.70;;;8.82;;
20073;SDS011;10197;54.282;10.078;2023-04-06T09:33:43;8.20;;;6.72;;
20073;SDS011;10197;54.282;10.078;2023-04-06T09:36:13;9.85;;;6.80;;
20073;SDS011;10197;54.282;10.078;2023-04-06T09:38:51;9.70;;;6.80;;
20073;SDS011;10197;54.282;10.078;2023-04-06T09:41:20;8.75;;;7.20;;
20073;SDS011;10197;54.282;10.078;2023-04-06T09:43:49;8.13;;;6.38;;
20073;SDS011;10197;54.282;10.078;2023-04-06T09:46:16;6.25;;;5.57;;
20073;SDS011;10197;54.282;10.078;2023-04-06T09:48:44;7.68;;;6.50;;
20073;SDS011;10197;54.282;10.078;2023-04-06T09:51:13;6.57;;;5.35;;
20073;SDS011;10197;54.282;10.078;2023-04-06T09:53:43;8.60;;;6.15;;
20073;SDS011;10197;54.282;10.078;2023-04-06T09:56:11;6.47;;;5.32;;
20073;SDS011;10197;54.282;10.078;2023-04-06T09:58:39;5.82;;;5.20;;
20073;SDS011;10197;54.282;10.078;2023-04-06T10:01:12;8.98;;;4.82;;
20073;SDS011;10197;54.282;10.078;2023-04-06T10:03:43;5.47;;;4.53;;
20073;SDS011;10197;54.282;10.078;2023-04-06T10:06:25;5.35;;;4.47;;
20073;SDS011;10197;54.282;10.078;2023-04-06T10:08:55;5.30;;;4.20;;
20073;SDS011;10197;54.282;10.078;2023-04-06T10:11:23;8.98;;;5.72;;
20073;SDS011;10197;54.282;10.078;2023-04-06T10:13:50;6.50;;;5.22;;
20073;SDS011;10197;54.282;10.078;2023-04-06T10:16:17;7.00;;;4.38;;
20073;SDS011;10197;54.282;10.078;2023-04-06T10:18:44;6.88;;;4.28;;
20073;SDS011;10197;54.282;10.078;2023-04-06T10:21:14;5.72;;;4.60;;
20073;SDS011;10197;54.282;10.078;2023-04-06T10:23:45;8.40;;;5.57;;
20073;SDS011;10197;54.282;10.078;2023-04-06T10:26:15;5.60;;;4.65;;
20073;SDS011;10197;54.282;10.078;2023-04-06T10:28:44;6.25;;;4.70;;
20073;SDS011;10197;54.282;10.078;2023-04-06T10:31:12;5.65;;;4.82;;
20073;SDS011;10197;54.282;10.078;2023-04-06T10:33:39;5.72;;;4.68;;
20073;SDS011;10197;54.282;10.078;2023-04-06T10:36:10;6.47;;;5.00;;
20073;SDS011;10197;54.282;10.078;2023-04-06T10:38:38;5.63;;;3.78;;
20073;SDS011;10197;54.282;10.078;2023-04-06T10:41:10;6.63;;;4.40;;
20073;SDS011;10197;54.282;10.078;2023-04-06T10:43:38;7.40;;;5.15;;
20073;SDS011;10197;54.282;10.078;2023-04-06T10:46:06;7.28;;;4.57;;
20073;SDS011;10197;54.282;10.078;2023-04-06T10:48:38;5.60;;;5.00;;
20073;SDS011;10197;54.282;10.078;2023-04-06T10:51:10;5.38;;;4.32;;
20073;SDS011;10197;54.282;10.078;2023-04-06T10:53:38;5.50;;;4.50;;
20073;SDS011;10197;54.282;10.078;2023-04-06T10:56:10;6.38;;;5.30;;
20073;SDS011;10197;54.282;10.078;2023-04-06T10:58:38;7.75;;;4.80;;
20073;SDS011;10197;54.282;10.078;2023-04-06T11:01:05;7.63;;;4.85;;
20073;SDS011;10197;54.282;10.078;2023-04-06T11:03:36;7.15;;;5.00;;
20073;SDS011;10197;54.282;10.078;2023-04-06T11:06:09;10.50;;;4.85;;
20073;SDS011;10197;54.282;10.078;2023-04-06T11:08:36;6.22;;;4.90;;
20073;SDS011;10197;54.282;10.078;2023-04-06T11:11:05;5.95;;;4.65;;
20073;SDS011;10197;54.282;10.078;2023-04-06T11:13:39;5.53;;;4.68;;
20073;SDS011;10197;54.282;10.078;2023-04-06T11:16:11;6.68;;;4.93;;
20073;SDS011;10197;54.282;10.078;2023-04-06T11:18:46;7.20;;;5.05;;
20073;SDS011;10197;54.282;10.078;2023-04-06T11:21:17;7.35;;;5.05;;
20073;SDS011;10197;54.282;10.078;2023-04-06T11:23:45;4.93;;;4.20;;
20073;SDS011;10197;54.282;10.078;2023-04-06T11:26:12;6.20;;;4.93;;
20073;SDS011;10197;54.282;10.078;2023-04-06T11:28:41;6.40;;;4.80;;
20073;SDS011;10197;54.282;10.078;2023-04-06T11:31:09;6.68;;;4.90;;
20073;SDS011;10197;54.282;10.078;2023-04-06T11:33:36;9.05;;;5.07;;
20073;SDS011;10197;54.282;10.078;2023-04-06T11:36:04;6.63;;;3.60;;
20073;SDS011;10197;54.282;10.078;2023-04-06T11:38:32;6.30;;;4.32;;
20073;SDS011;10197;54.282;10.078;2023-04-06T11:41:00;7.13;;;4.47;;
20073;SDS011;10197;54.282;10.078;2023-04-06T11:43:28;5.78;;;4.15;;
20073;SDS011;10197;54.282;10.078;2023-04-06T11:46:00;5.05;;;4.13;;
20073;SDS011;10197;54.282;10.078;2023-04-06T11:48:28;6.20;;;4.60;;
20073;SDS011;10197;54.282;10.078;2023-04-06T11:50:56;6.72;;;4.72;;
20073;SDS011;10197;54.282;10.078;2023-04-06T11:53:26;5.65;;;4.38;;
20073;SDS011;10197;54.282;10.078;2023-04-06T11:55:53;7.95;;;4.07;;
20073;SDS011;10197;54.282;10.078;2023-04-06T11:58:20;7.53;;;4.43;;
20073;SDS011;10197;54.282;10.078;2023-04-06T12:00:48;5.90;;;4.15;;
20073;SDS011;10197;54.282;10.078;2023-04-06T12:03:16;5.78;;;4.32;;
20073;SDS011;10197;54.282;10.078;2023-04-06T12:05:43;4.68;;;3.72;;
20073;SDS011;10197;54.282;10.078;2023-04-06T12:08:10;7.68;;;4.72;;
20073;SDS011;10197;54.282;10.078;2023-04-06T12:10:37;8.57;;;4.40;;
20073;SDS011;10197;54.282;10.078;2023-04-06T12:13:05;5.97;;;4.25;;
20073;SDS011;10197;54.282;10.078;2023-04-06T12:15:32;5.78;;;4.07;;
20073;SDS011;10197;54.282;10.078;2023-04-06T12:17:59;4.70;;;4.10;;
20073;SDS011;10197;54.282;10.078;2023-04-06T12:20:27;6.50;;;5.00;;
20073;SDS011;10197;54.282;10.078;2023-04-06T12:22:55;5.07;;;3.75;;
20073;SDS011;10197;54.282;10.078;2023-04-06T12:25:22;6.40;;;3.97;;
20073;SDS011;10197;54.282;10.078;2023-04-06T12:27:49;6.10;;;5.03;;
20073;SDS011;10197;54.282;10.078;2023-04-06T12:30:16;4.63;;;4.18;;
20073;SDS011;10197;54.282;10.078;2023-04-06T12:32:43;6.25;;;4.90;;
20073;SDS011;10197;54.282;10.078;2023-04-06T12:35:10;5.57;;;4.30;;
20073;SDS011;10197;54.282;10.078;2023-04-06T12:37:42;5.50;;;4.25;;
20073;SDS011;10197;54.282;10.078;2023-04-06T12:40:09;6.13;;;4.47;;
20073;SDS011;10197;54.282;10.078;2023-04-06T12:42:38;5.57;;;4.97;;
20073;SDS011;10197;54.282;10.078;2023-04-06T12:45:07;6.97;;;5.05;;
20073;SDS011;10197;54.282;10.078;2023-04-06T12:47:35;7.15;;;4.75;;
20073;SDS011;10197;54.282;10.078;2023-04-06T12:50:03;7.60;;;4.30;;
20073;SDS011;10197;54.282;10.078;2023-04-06T12:52:31;7.07;;;4.68;;
20073;SDS011;10197;54.282;10.078;2023-04-06T12:55:02;10.63;;;6.20;;
20073;SDS011;10197;54.282;10.078;2023-04-06T12:57:30;8.40;;;6.95;;
20073;SDS011;10197;54.282;10.078;2023-04-06T12:59:57;8.77;;;5.88;;
20073;SDS011;10197;54.282;10.078;2023-04-06T13:02:24;7.90;;;6.35;;
20073;SDS011;10197;54.282;10.078;2023-04-06T13:04:51;7.38;;;5.35;;
20073;SDS011;10197;54.282;10.078;2023-04-06T13:07:18;7.97;;;5.63;;
20073;SDS011;10197;54.282;10.078;2023-04-06T13:09:46;8.15;;;6.18;;
20073;SDS011;10197;54.282;10.078;2023-04-06T13:12:16;10.27;;;7.32;;
20073;SDS011;10197;54.282;10.078;2023-04-06T13:14:43;10.30;;;7.30;;
20073;SDS011;10197;54.282;10.078;2023-04-06T13:17:12;9.18;;;7.25;;
20073;SDS011;10197;54.282;10.078;2023-04-06T13:19:39;9.13;;;7.20;;
20073;SDS011;10197;54.282;10.078;2023-04-06T13:22:06;8.25;;;6.85;;
20073;SDS011;10197;54.282;10.078;2023-04-06T13:24:34;7.07;;;5.75;;
20073;SDS011;10197;54.282;10.078;2023-04-06T13:27:01;11.35;;;8.07;;
20073;SDS011;10197;54.282;10.078;2023-04-06T13:31:57;7.32;;;6.63;;
20073;SDS011;10197;54.282;10.078;2023-04-06T13:34:24;7.43;;;6.07;;
20073;SDS011;10197;54.282;10.078;2023-04-06T13:36:51;8.02;;;5.95;;
20073;SDS011;10197;54.282;10.078;2023-04-06T13:39:18;7.93;;;7.13;;
20073;SDS011;10197;54.282;10.078;2023-04-06T13:41:45;7.68;;;6.40;;
20073;SDS011;10197;54.282;10.078;2023-04-06T13:44:12;7.63;;;6.18;;
20073;SDS011;10197;54.282;10.078;2023-04-06T13:46:40;9.45;;;6.72;;
20073;SDS011;10197;54.282;10.078;2023-04-06T13:49:08;8.45;;;6.97;;
20073;SDS011;10197;54.282;10.078;2023-04-06T13:51:35;8.48;;;6.80;;
20073;SDS011;10197;54.282;10.078;2023-04-06T13:54:02;10.57;;;7.45;;
20073;SDS011;10197;54.282;10.078;2023-04-06T13:56:29;9.55;;;7.63;;
20073;SDS011;10197;54.282;10.078;2023-04-06T13:58:57;8.20;;;7.03;;
20073;SDS011;10197;54.282;10.078;2023-04-06T14:01:25;7.82;;;6.60;;
20073;SDS011;10197;54.282;10.078;2023-04-06T14:03:54;8.25;;;6.97;;
20073;SDS011;10197;54.282;10.078;2023-04-06T14:06:21;7.60;;;6.20;;
20073;SDS011;10197;54.282;10.078;2023-04-06T14:08:48;9.65;;;7.65;;
20073;SDS011;10197;54.282;10.078;2023-04-06T14:11:15;11.65;;;7.28;;
20073;SDS011;10197;54.282;10.078;2023-04-06T14:13:42;8.50;;;6.93;;
20073;SDS011;10197;54.282;10.078;2023-04-06T14:16:09;9.93;;;7.30;;
20073;SDS011;10197;54.282;10.078;2023-04-06T14:18:36;9.25;;;7.93;;
20073;SDS011;10197;54.282;10.078;2023-04-06T14:21:05;8.02;;;7.20;;
20073;SDS011;10197;54.282;10.078;2023-04-06T14:23:31;8.75;;;6.10;;
20073;SDS011;10197;54.282;10.078;2023-04-06T14:26:02;8.38;;;7.55;;
20073;SDS011;10197;54.282;10.078;2023-04-06T14:28:30;9.85;;;7.30;;
20073;SDS011;10197;54.282;10.078;2023-04-06T14:30:58;9.02;;;7.32;;
20073;SDS011;10197;54.282;10.078;2023-04-06T14:33:25;10.00;;;7.28;;
20073;SDS011;10197;54.282;10.078;2023-04-06T14:35:52;11.43;;;7.47;;
20073;SDS011;10197;54.282;10.078;2023-04-06T14:38:21;14.27;;;6.97;;
20073;SDS011;10197;54.282;10.078;2023-04-06T14:40:48;9.32;;;7.53;;